createdAt,value
2023-02-18T00:01:34.409Z,99922.00
2023-02-18T00:04:04.807Z,99925.91
2023-02-18T00:06:37.268Z,99904.16
2023-02-18T00:09:09.346Z,99926.75
2023-02-18T00:11:42.564Z,99922.28
2023-02-18T00:14:16.224Z,99925.91
2023-02-18T00:16:47.795Z,99930.91
2023-02-18T00:19:20.395Z,99929.09
2023-02-18T00:21:51.094Z,99931.03
2023-02-18T00:24:22.492Z,99928.69
2023-02-18T00:26:56.331Z,99931.03
2023-02-18T00:29:26.491Z,99924.06
2023-02-18T00:31:56.810Z,99923.09
2023-02-18T00:34:27.178Z,99921.72
2023-02-18T00:36:57.355Z,99922.28
2023-02-18T00:39:27.891Z,99916.84
2023-02-18T00:42:00.762Z,99917.78
2023-02-18T00:44:31.138Z,99910.97
2023-02-18T00:47:03.330Z,99915.41
2023-02-18T00:49:33.674Z,99925.72
2023-02-18T00:52:03.934Z,99914.41
2023-02-18T00:54:34.174Z,99912.31
2023-02-18T00:57:07.186Z,99895.88
2023-02-18T00:59:37.642Z,99904.09
2023-02-18T01:02:07.916Z,99900.75
2023-02-18T01:04:38.323Z,99889.19
2023-02-18T01:07:10.504Z,99891.97
2023-02-18T01:09:40.814Z,99895.84
2023-02-18T01:12:13.712Z,99895.84
2023-02-18T01:14:44.054Z,99888.50
2023-02-18T01:17:14.673Z,99882.09
2023-02-18T01:19:45.061Z,99869.69
2023-02-18T01:22:15.353Z,99868.13
2023-02-18T01:24:46.348Z,99862.00
2023-02-18T01:27:19.478Z,99854.34
2023-02-18T01:29:49.808Z,99862.69
2023-02-18T01:32:20.053Z,99849.31
2023-02-18T01:34:50.467Z,99851.25
2023-02-18T01:37:20.714Z,99851.41
2023-02-18T01:39:53.985Z,99857.25
2023-02-18T01:42:29.755Z,99844.88
2023-02-18T01:45:29.722Z,99845.00
2023-02-18T01:48:00.896Z,99848.75
2023-02-18T01:50:31.246Z,99849.28
2023-02-18T01:53:01.576Z,99840.91
2023-02-18T01:55:31.872Z,99838.44
2023-02-18T01:58:05.551Z,99838.69
2023-02-18T02:00:37.159Z,99845.53
2023-02-18T02:03:07.429Z,99841.63
2023-02-18T02:05:38.081Z,99840.16
2023-02-18T02:08:09.288Z,99837.22
2023-02-18T02:10:52.054Z,99847.84
2023-02-18T02:13:35.608Z,99831.84
2023-02-18T02:16:13.391Z,99837.56
2023-02-18T02:18:54.894Z,99840.91
2023-02-18T02:22:01.370Z,99832.97
2023-02-18T02:25:11.561Z,99836.69
2023-02-18T02:28:07.886Z,99826.09
2023-02-18T02:30:59.044Z,99834.19
2023-02-18T02:34:02.779Z,99828.09
2023-02-18T02:36:43.690Z,99823.31
2023-02-18T02:39:23.004Z,99822.16
2023-02-18T02:42:01.687Z,99827.75
2023-02-18T02:44:37.740Z,99822.59
2023-02-18T02:47:14.821Z,99819.97
2023-02-18T02:49:53.298Z,99817.81
2023-02-18T02:52:31.999Z,99831.34
2023-02-18T02:55:02.209Z,99826.31
2023-02-18T02:57:52.024Z,99817.47
2023-02-18T03:00:28.474Z,99827.19
2023-02-18T03:03:14.689Z,99827.00
2023-02-18T03:06:04.045Z,99818.44
2023-02-18T03:08:50.161Z,99815.72
2023-02-18T03:11:21.477Z,99833.47
2023-02-18T03:13:59.694Z,99824.97
2023-02-18T03:16:34.192Z,99824.38
2023-02-18T03:19:10.815Z,99832.72
2023-02-18T03:21:44.907Z,99835.06
2023-02-18T03:24:25.059Z,99839.81
2023-02-18T03:27:01.200Z,99850.31
2023-02-18T03:29:32.887Z,99843.69
2023-02-18T03:32:09.465Z,99847.88
2023-02-18T03:34:44.604Z,99850.78
2023-02-18T03:37:16.089Z,99843.72
2023-02-18T03:39:52.923Z,99853.19
2023-02-18T03:42:23.176Z,99847.88
2023-02-18T03:44:53.355Z,99854.66
2023-02-18T03:47:23.825Z,99847.44
2023-02-18T03:49:55.064Z,99854.19
2023-02-18T03:52:25.310Z,99858.13
2023-02-18T03:54:58.087Z,99857.31
2023-02-18T03:57:28.435Z,99861.44
2023-02-18T03:59:58.704Z,99859.63
2023-02-18T04:02:29.712Z,99863.28
2023-02-18T04:04:59.876Z,99856.72
2023-02-18T04:07:30.136Z,99865.78
2023-02-18T04:10:03.978Z,99878.56
2023-02-18T04:12:34.810Z,99869.97
2023-02-18T04:15:04.942Z,99870.22
2023-02-18T04:17:35.868Z,99874.97
2023-02-18T04:20:09.474Z,99873.31
2023-02-18T04:22:42.235Z,99874.91
2023-02-18T04:25:15.014Z,99875.28
2023-02-18T04:27:45.275Z,99879.06
2023-02-18T04:30:18.786Z,99876.88
2023-02-18T04:32:49.240Z,99878.06
2023-02-18T04:35:19.654Z,99887.47
2023-02-18T04:37:50.094Z,99886.34
2023-02-18T04:40:25.512Z,99886.03
2023-02-18T04:42:55.699Z,99895.03
2023-02-18T04:45:25.853Z,99894.06
2023-02-18T04:47:57.043Z,99880.88
2023-02-18T04:50:27.277Z,99896.47
2023-02-18T04:52:57.474Z,99881.91
2023-02-18T04:55:30.342Z,99880.38
2023-02-18T04:58:00.533Z,99879.00
2023-02-18T05:00:30.927Z,99878.28
2023-02-18T05:03:01.180Z,99886.69
2023-02-18T05:05:31.364Z,99884.81
2023-02-18T05:08:01.561Z,99878.94
2023-02-18T05:10:34.676Z,99891.09
2023-02-18T05:13:04.837Z,99882.25
2023-02-18T05:15:35.197Z,99879.22
2023-02-18T05:18:05.571Z,99878.53
2023-02-18T05:20:36.123Z,99873.38
2023-02-18T05:23:06.357Z,99868.91
2023-02-18T05:25:39.189Z,99863.59
2023-02-18T05:28:09.404Z,99859.56
2023-02-18T05:30:39.723Z,99872.66
2023-02-18T05:33:09.813Z,99886.22
2023-02-18T05:35:39.988Z,99896.59
2023-02-18T05:38:10.205Z,99905.38
2023-02-18T05:40:43.109Z,99908.31
2023-02-18T05:43:13.623Z,99907.66
2023-02-18T05:45:43.854Z,99916.59
2023-02-18T05:48:14.078Z,99926.47
2023-02-18T05:50:44.470Z,99928.28
2023-02-18T05:53:16.714Z,99934.28
2023-02-18T05:55:50.358Z,99952.97
2023-02-18T05:58:20.966Z,99951.69
2023-02-18T06:00:51.245Z,99953.97
2023-02-18T06:03:21.478Z,99950.19
2023-02-18T06:05:52.825Z,99961.34
2023-02-18T06:08:26.161Z,99965.13
2023-02-18T06:10:59.013Z,99967.22
2023-02-18T06:13:29.298Z,99960.22
2023-02-18T06:15:59.542Z,99965.38
2023-02-18T06:18:29.960Z,99965.25
2023-02-18T06:21:00.295Z,99972.78
2023-02-18T06:23:30.504Z,99973.47
2023-02-18T06:26:03.406Z,99983.66
2023-02-18T06:28:33.640Z,99979.31
2023-02-18T06:31:04.169Z,99987.28
2023-02-18T06:33:34.955Z,99987.25
2023-02-18T06:36:11.918Z,99996.63
2023-02-18T06:38:43.611Z,100001.09
2023-02-18T06:41:17.233Z,99994.09
2023-02-18T06:43:47.508Z,100003.59
2023-02-18T06:46:17.957Z,100001.75
2023-02-18T06:48:48.751Z,100002.31
2023-02-18T06:51:19.693Z,99998.53
2023-02-18T06:53:50.167Z,99994.50
2023-02-18T06:56:25.747Z,100002.81
2023-02-18T06:58:56.176Z,100001.13
2023-02-18T07:01:26.411Z,100006.03
2023-02-18T07:03:56.848Z,100013.56
2023-02-18T07:06:27.480Z,100012.44
2023-02-18T07:08:57.750Z,100011.03
2023-02-18T07:11:34.308Z,100017.75
2023-02-18T07:14:05.409Z,100031.72
2023-02-18T07:16:36.593Z,100025.56
2023-02-18T07:19:07.231Z,100015.38
2023-02-18T07:21:37.422Z,100010.63
2023-02-18T07:24:09.895Z,100011.69
2023-02-18T07:26:42.773Z,100013.22
2023-02-18T07:29:13.051Z,100025.22
2023-02-18T07:31:43.394Z,100022.44
2023-02-18T07:34:13.941Z,100018.66
2023-02-18T07:36:44.220Z,100013.03
2023-02-18T07:39:14.526Z,100010.53
2023-02-18T07:41:47.323Z,100017.94
2023-02-18T07:44:17.545Z,100016.81
2023-02-18T07:46:48.545Z,100015.53
2023-02-18T07:49:18.964Z,100017.16
2023-02-18T07:51:50.564Z,100022.28
2023-02-18T07:54:21.684Z,100024.44
2023-02-18T07:56:55.030Z,100024.53
2023-02-18T07:59:25.383Z,100024.91
2023-02-18T08:01:55.784Z,100026.25
2023-02-18T08:04:26.066Z,100020.59
2023-02-18T08:06:56.267Z,100023.94
2023-02-18T08:09:26.576Z,100019.25
2023-02-18T08:11:59.534Z,100021.66
2023-02-18T08:14:29.761Z,100014.28
2023-02-18T08:17:00.167Z,100023.69
2023-02-18T08:19:30.441Z,100007.25
2023-02-18T08:22:04.815Z,100008.22
2023-02-18T08:24:35.053Z,100024.16
2023-02-18T08:27:07.899Z,100026.28
2023-02-18T08:29:38.175Z,100031.03
2023-02-18T08:32:08.409Z,100026.41
2023-02-18T08:34:38.746Z,100026.41
2023-02-18T08:37:09.027Z,100032.13
2023-02-18T08:39:40.314Z,100032.44
2023-02-18T08:42:13.284Z,100031.06
2023-02-18T08:44:43.530Z,100038.44
2023-02-18T08:48:18.072Z,100039.81
2023-02-18T08:50:03.976Z,100037.59
2023-02-18T08:52:35.755Z,100040.13
2023-02-18T08:55:07.252Z,100045.16
2023-02-18T08:57:40.045Z,100045.69
2023-02-18T09:00:15.443Z,100047.16
2023-02-18T09:02:47.647Z,100046.94
2023-02-18T09:05:18.468Z,100047.91
2023-02-18T09:07:48.706Z,100055.34
2023-02-18T09:10:19.001Z,100047.53
2023-02-18T09:12:51.906Z,100056.47
2023-02-18T09:15:22.383Z,100057.44
2023-02-18T09:17:52.600Z,100048.03
2023-02-18T09:20:23.010Z,100046.31
2023-02-18T09:22:53.296Z,100052.31
2023-02-18T09:25:23.666Z,100048.75
2023-02-18T09:27:56.411Z,100049.19
2023-02-18T09:30:26.689Z,100047.38
2023-02-18T09:32:58.249Z,100050.88
2023-02-18T09:35:28.492Z,100048.22
2023-02-18T09:37:58.785Z,100042.91
2023-02-18T09:40:32.332Z,100060.50
2023-02-18T09:43:05.525Z,100061.06
2023-02-18T09:45:36.094Z,100059.53
2023-02-18T09:48:07.616Z,100066.16
2023-02-18T09:50:38.162Z,100063.28
2023-02-18T09:53:08.565Z,100064.69
2023-02-18T09:55:41.975Z,100078.03
2023-02-18T09:58:21.131Z,100086.38
2023-02-18T10:00:54.237Z,100078.41
2023-02-18T10:03:27.051Z,100087.34
2023-02-18T10:06:01.798Z,100084.44
2023-02-18T10:08:36.315Z,100087.63
2023-02-18T10:11:07.428Z,100071.13
2023-02-18T10:13:41.367Z,100074.59
2023-02-18T10:16:12.884Z,100078.28
2023-02-18T10:18:46.223Z,100075.34
2023-02-18T10:21:18.451Z,100073.88
2023-02-18T10:24:02.657Z,100077.09
2023-02-18T10:26:34.470Z,100072.16
2023-02-18T10:29:12.586Z,100080.25
2023-02-18T10:31:47.383Z,100075.78
2023-02-18T10:34:28.642Z,100074.38
2023-02-18T10:37:04.139Z,100074.66
2023-02-18T10:39:51.101Z,100064.88
2023-02-18T10:42:36.825Z,100069.06
2023-02-18T10:45:18.273Z,100072.84
2023-02-18T10:47:57.233Z,100075.59
2023-02-18T10:50:32.609Z,100060.50
2023-02-18T10:53:12.063Z,100054.06
2023-02-18T10:55:43.702Z,100047.56
2023-02-18T10:58:33.629Z,100043.03
2023-02-18T11:01:09.118Z,100039.00
2023-02-18T11:03:45.729Z,100031.06
2023-02-18T11:06:23.939Z,100037.19
2023-02-18T11:08:57.638Z,100026.69
2023-02-18T11:11:32.542Z,100021.28
2023-02-18T11:14:05.592Z,100024.97
2023-02-18T11:16:46.585Z,100021.09
2023-02-18T11:19:35.420Z,100012.59
2023-02-18T11:22:19.232Z,100007.34
2023-02-18T11:24:51.085Z,99995.09
2023-02-18T11:27:27.842Z,99996.00
2023-02-18T11:30:03.605Z,100000.13
2023-02-18T11:32:39.015Z,99995.38
2023-02-18T11:35:09.796Z,99996.44
2023-02-18T11:37:40.986Z,99993.16
2023-02-18T11:40:25.927Z,99985.91
2023-02-18T11:43:06.986Z,99984.16
2023-02-18T11:45:38.528Z,99973.06
2023-02-18T11:48:19.365Z,99966.44
2023-02-18T11:50:55.270Z,99957.06
2023-02-18T11:53:31.590Z,99959.78
2023-02-18T11:56:04.406Z,99957.28
2023-02-18T11:58:41.543Z,99945.13
2023-02-18T12:01:18.711Z,99942.13
2023-02-18T12:03:57.590Z,99940.28
2023-02-18T12:06:33.791Z,99928.63
2023-02-18T12:09:09.190Z,99939.28
2023-02-18T12:11:45.221Z,99935.91
2023-02-18T12:14:20.077Z,99944.94
2023-02-18T12:17:17.568Z,99934.56
2023-02-18T12:20:06.691Z,99932.06
2023-02-18T12:22:45.604Z,99929.75
2023-02-18T12:25:38.995Z,99928.97
2023-02-18T12:28:26.230Z,99919.56
2023-02-18T12:31:19.784Z,99919.41
2023-02-18T12:34:03.425Z,99918.09
2023-02-18T12:36:48.327Z,99907.78
2023-02-18T12:39:36.043Z,99916.31
2023-02-18T12:42:32.331Z,99917.28
2023-02-18T12:45:24.727Z,99900.91
2023-02-18T12:48:21.481Z,99898.88
2023-02-18T12:51:01.771Z,99891.38
2023-02-18T12:53:52.409Z,99893.47
2023-02-18T12:56:50.951Z,99878.38
2023-02-18T12:59:42.526Z,99877.84
2023-02-18T13:02:27.806Z,99872.69
2023-02-18T13:05:04.691Z,99877.50
2023-02-18T13:07:57.613Z,99880.69
2023-02-18T13:11:04.686Z,99880.28
2023-02-18T13:13:37.872Z,99885.16
2023-02-18T13:16:13.413Z,99871.19
2023-02-18T13:18:48.601Z,99874.94
2023-02-18T13:21:19.809Z,99862.13
2023-02-18T13:23:56.190Z,99865.03
2023-02-18T13:26:33.130Z,99848.44
2023-02-18T13:29:18.994Z,99863.81
2023-02-18T13:32:03.410Z,99850.53
2023-02-18T13:34:35.388Z,99856.84
2023-02-18T13:37:16.740Z,99859.50
2023-02-18T13:39:53.076Z,99838.06
2023-02-18T13:42:41.642Z,99849.69
2023-02-18T13:45:30.158Z,99839.69
2023-02-18T13:48:01.034Z,99845.91
2023-02-18T13:50:43.685Z,99849.16
2023-02-18T13:53:24.043Z,99853.50
2023-02-18T13:56:01.458Z,99865.09
2023-02-18T13:58:42.695Z,99857.41
2023-02-18T14:01:26.373Z,99862.28
2023-02-18T14:04:02.056Z,99842.97
2023-02-18T14:06:37.453Z,99847.31
2023-02-18T14:09:41.268Z,99841.72
2023-02-18T14:12:42.428Z,99840.06
2023-02-18T14:15:51.375Z,99825.94
2023-02-18T14:18:57.412Z,99824.66
2023-02-18T14:21:48.970Z,99812.75
2023-02-18T14:24:50.529Z,99807.97
2023-02-18T14:27:21.119Z,99801.88
2023-02-18T14:29:55.590Z,99800.06
2023-02-18T14:32:26.403Z,99808.97
2023-02-18T14:35:22.864Z,99783.75
2023-02-18T14:38:21.615Z,99772.91
2023-02-18T14:41:04.259Z,99772.44
2023-02-18T14:43:47.395Z,99778.69
2023-02-18T14:46:29.128Z,99778.69
2023-02-18T14:49:20.447Z,99782.38
2023-02-18T14:51:55.651Z,99777.84
2023-02-18T14:54:28.925Z,99775.94
2023-02-18T14:57:02.299Z,99764.19
2023-02-18T14:59:38.750Z,99756.75
2023-02-18T15:02:20.967Z,99753.22
2023-02-18T15:04:52.088Z,99739.75
2023-02-18T15:07:26.046Z,99740.56
2023-02-18T15:09:58.130Z,99738.50
2023-02-18T15:12:28.687Z,99744.25
2023-02-18T15:15:03.788Z,99741.09
2023-02-18T15:17:34.192Z,99723.16
2023-02-18T15:20:09.207Z,99712.41
2023-02-18T15:22:42.865Z,99715.63
2023-02-18T15:25:15.745Z,99715.34
2023-02-18T15:27:47.310Z,99704.56
2023-02-18T15:30:28.008Z,99701.72
2023-02-18T15:33:00.186Z,99706.94
2023-02-18T15:35:33.350Z,99697.00
2023-02-18T15:38:06.716Z,99689.06
2023-02-18T15:40:40.627Z,99683.22
2023-02-18T15:43:13.488Z,99679.56
2023-02-18T15:45:46.899Z,99666.91
2023-02-18T15:48:26.763Z,99676.00
2023-02-18T15:51:08.061Z,99671.16
2023-02-18T15:53:50.235Z,99659.06
2023-02-18T15:56:24.860Z,99672.47
2023-02-18T15:59:10.292Z,99673.91
2023-02-18T16:01:41.175Z,99670.78
2023-02-18T16:04:11.813Z,99665.13
2023-02-18T16:06:49.294Z,99669.06
2023-02-18T16:09:26.142Z,99661.00
2023-02-18T16:12:00.250Z,99658.13
2023-02-18T16:14:32.568Z,99656.22
2023-02-18T16:17:13.061Z,99659.19
2023-02-18T16:20:04.445Z,99662.81
2023-02-18T16:22:40.416Z,99660.56
2023-02-18T16:25:19.619Z,99660.91
2023-02-18T16:27:53.783Z,99654.03
2023-02-18T16:30:27.124Z,99648.59
2023-02-18T16:32:58.651Z,99660.19
2023-02-18T16:35:47.441Z,99651.97
2023-02-18T16:38:20.372Z,99639.22
2023-02-18T16:40:55.002Z,99647.47
2023-02-18T16:43:28.957Z,99648.44
2023-02-18T16:46:00.246Z,99641.72
2023-02-18T16:48:34.746Z,99655.03
2023-02-18T16:51:08.611Z,99644.13
2023-02-18T16:53:40.059Z,99652.59
2023-02-18T16:56:18.078Z,99640.25
2023-02-18T16:58:50.768Z,99636.47
2023-02-18T17:01:28.838Z,99644.06
2023-02-18T17:04:00.740Z,99640.88
2023-02-18T17:06:32.094Z,99643.97
2023-02-18T17:09:09.250Z,99647.84
2023-02-18T17:11:42.145Z,99649.22
2023-02-18T17:14:18.074Z,99647.91
2023-02-18T17:16:48.749Z,99652.22
2023-02-18T17:19:19.262Z,99647.84
2023-02-18T17:21:49.534Z,99647.00
2023-02-18T17:24:21.618Z,99652.53
2023-02-18T17:26:54.699Z,99639.25
2023-02-18T17:29:25.188Z,99639.72
2023-02-18T17:31:58.771Z,99641.69
2023-02-18T17:34:32.705Z,99649.28
2023-02-18T17:37:02.775Z,99644.34
2023-02-18T17:39:33.341Z,99633.34
2023-02-18T17:42:07.024Z,99637.06
2023-02-18T17:44:45.038Z,99648.81
2023-02-18T17:47:16.044Z,99629.13
2023-02-18T17:49:46.761Z,99632.59
2023-02-18T17:52:33.836Z,99621.09
2023-02-18T17:55:04.707Z,99612.41
2023-02-18T17:57:37.709Z,99613.59
2023-02-18T18:00:10.271Z,99612.84
2023-02-18T18:02:40.966Z,99607.50
2023-02-18T18:05:19.910Z,99602.75
2023-02-18T18:07:50.168Z,99615.13
2023-02-18T18:10:22.711Z,99607.25
2023-02-18T18:12:55.612Z,99610.75
2023-02-18T18:15:30.371Z,99588.34
2023-02-18T18:18:01.647Z,99615.22
2023-02-18T18:20:34.413Z,99613.41
2023-02-18T18:23:06.854Z,99600.03
2023-02-18T18:25:41.152Z,99596.38
2023-02-18T18:28:14.626Z,99585.25
2023-02-18T18:30:48.567Z,99590.88
2023-02-18T18:33:19.752Z,99591.81
2023-02-18T18:35:52.318Z,99582.34
2023-02-18T18:38:23.742Z,99578.44
2023-02-18T18:40:56.335Z,99579.13
2023-02-18T18:43:32.789Z,99580.72
2023-02-18T18:46:03.664Z,99567.88
2023-02-18T18:48:34.183Z,99578.81
2023-02-18T18:51:04.932Z,99574.94
2023-02-18T18:53:37.001Z,99559.91
2023-02-18T18:56:14.620Z,99572.75
2023-02-18T18:58:47.760Z,99558.63
2023-02-18T19:01:20.498Z,99580.53
2023-02-18T19:03:51.964Z,99583.19
2023-02-18T19:06:22.498Z,99589.25
2023-02-18T19:08:53.036Z,99587.75
2023-02-18T19:11:23.394Z,99588.75
2023-02-18T19:13:56.394Z,99580.84
2023-02-18T19:16:37.303Z,99581.41
2023-02-18T19:19:11.537Z,99585.19
2023-02-18T19:21:43.552Z,99588.38
2023-02-18T19:24:14.240Z,99586.13
2023-02-18T19:26:44.814Z,99578.06
2023-02-18T19:29:19.428Z,99571.78
2023-02-18T19:31:51.266Z,99562.03
2023-02-18T19:34:22.957Z,99553.41
2023-02-18T19:36:53.403Z,99558.13
2023-02-18T19:39:23.823Z,99546.88
2023-02-18T19:41:54.276Z,99541.44
2023-02-18T19:44:27.324Z,99548.88
2023-02-18T19:46:59.167Z,99548.59
2023-02-18T19:49:29.956Z,99542.06
2023-02-18T19:52:04.274Z,99541.97
2023-02-18T19:54:34.691Z,99541.84
2023-02-18T19:57:05.638Z,99539.19
2023-02-18T19:59:39.475Z,99553.81
2023-02-18T20:02:10.717Z,99546.44
2023-02-18T20:04:41.788Z,99543.38
2023-02-18T20:07:13.606Z,99553.97
2023-02-18T20:09:44.016Z,99558.28
2023-02-18T20:12:14.557Z,99568.28
2023-02-18T20:14:47.777Z,99561.28
2023-02-18T20:17:18.174Z,99566.63
2023-02-18T20:19:48.758Z,99563.78
2023-02-18T20:22:19.514Z,99584.53
2023-02-18T20:24:49.972Z,99568.66
2023-02-18T20:27:20.712Z,99559.63
2023-02-18T20:29:57.399Z,99557.78
2023-02-18T20:32:28.058Z,99557.50
2023-02-18T20:34:58.468Z,99573.97
2023-02-18T20:37:29.251Z,99565.72
2023-02-18T20:40:00.155Z,99562.25
2023-02-18T20:42:30.340Z,99562.25
2023-02-18T20:45:03.385Z,99561.81
2023-02-18T20:47:33.878Z,99560.47
2023-02-18T20:50:04.351Z,99548.06
2023-02-18T20:52:35.027Z,99559.00
2023-02-18T20:55:05.791Z,99544.69
2023-02-18T20:57:36.350Z,99561.94
2023-02-18T21:00:10.930Z,99559.03
2023-02-18T21:02:43.319Z,99570.19
2023-02-18T21:05:13.838Z,99578.94
2023-02-18T21:07:44.385Z,99579.72
2023-02-18T21:10:14.824Z,99583.28
2023-02-18T21:12:46.125Z,99578.88
2023-02-18T21:15:19.202Z,99580.22
2023-02-18T21:17:49.784Z,99595.88
2023-02-18T21:20:20.555Z,99583.34
2023-02-18T21:22:51.087Z,99595.03
2023-02-18T21:25:21.914Z,99599.66
2023-02-18T21:27:52.789Z,99585.44
2023-02-18T21:30:26.074Z,99578.28
2023-02-18T21:32:57.954Z,99583.53
2023-02-18T21:35:28.622Z,99572.50
2023-02-18T21:37:59.039Z,99578.50
2023-02-18T21:40:31.132Z,99592.94
2023-02-18T21:43:01.439Z,99599.97
2023-02-18T21:45:34.313Z,99605.75
2023-02-18T21:48:28.788Z,99607.72
2023-02-18T21:51:02.961Z,99611.50
2023-02-18T21:53:33.168Z,99613.28
2023-02-18T21:56:12.341Z,99618.66
2023-02-18T21:58:44.373Z,99614.72
2023-02-18T22:01:17.214Z,99621.09
2023-02-18T22:03:47.796Z,99625.84
2023-02-18T22:06:18.115Z,99626.94
2023-02-18T22:08:48.312Z,99619.34
2023-02-18T22:11:19.163Z,99623.59
2023-02-18T22:13:49.810Z,99619.28
2023-02-18T22:16:22.635Z,99626.47
2023-02-18T22:18:53.023Z,99628.38
2023-02-18T22:21:23.281Z,99634.66
2023-02-18T22:23:53.503Z,99632.59
2023-02-18T22:26:23.994Z,99635.91
2023-02-18T22:28:55.102Z,99628.94
2023-02-18T22:31:29.734Z,99631.97
2023-02-18T22:34:03.396Z,99629.91
2023-02-18T22:36:34.192Z,99626.88
2023-02-18T22:39:05.394Z,99626.72
2023-02-18T22:41:36.571Z,99617.94
2023-02-18T22:44:09.017Z,99629.66
2023-02-18T22:46:42.394Z,99626.78
2023-02-18T22:49:12.860Z,99630.72
2023-02-18T22:51:45.232Z,99616.44
2023-02-18T22:54:17.273Z,99633.34
2023-02-18T22:56:48.505Z,99640.22
2023-02-18T22:59:20.655Z,99650.72
2023-02-18T23:01:54.074Z,99655.84
2023-02-18T23:04:24.533Z,99654.63
2023-02-18T23:06:56.176Z,99649.22
2023-02-18T23:09:28.488Z,99650.34
2023-02-18T23:12:00.430Z,99647.41
2023-02-18T23:14:30.967Z,99649.00
2023-02-18T23:17:17.988Z,99646.06
2023-02-18T23:19:49.843Z,99647.75
2023-02-18T23:22:22.307Z,99644.53
2023-02-18T23:24:52.479Z,99651.38
2023-02-18T23:27:24.444Z,99650.81
2023-02-18T23:29:56.533Z,99645.25
2023-02-18T23:32:30.850Z,99645.94
2023-02-18T23:35:01.099Z,99638.41
2023-02-18T23:37:44.146Z,99650.28
2023-02-18T23:40:16.928Z,99651.41
2023-02-18T23:42:47.170Z,99656.00
2023-02-18T23:45:17.591Z,99661.97
2023-02-18T23:47:50.455Z,99654.59
2023-02-18T23:50:21.438Z,99661.59
2023-02-18T23:52:53.539Z,99661.03
2023-02-18T23:55:23.736Z,99662.41
2023-02-18T23:57:54.634Z,99664.88
